createdAt,value
2018-07-21T00:00:13.962Z,100459.06
2018-07-21T00:02:42.723Z,100451.91
2018-07-21T00:05:11.060Z,100451.40
2018-07-21T00:07:39.807Z,100448.34
2018-07-21T00:10:08.766Z,100444.77
2018-07-21T00:12:37.515Z,100440.67
2018-07-21T00:15:06.453Z,100440.67
2018-07-21T00:17:35.201Z,100452.12
2018-07-21T00:20:04.078Z,100447.19
2018-07-21T00:22:32.869Z,100449.39
2018-07-21T00:25:01.754Z,100445.82
2018-07-21T00:27:30.453Z,100446.34
2018-07-21T00:29:59.312Z,100444.63
2018-07-21T00:32:28.030Z,100447.36
2018-07-21T00:34:56.829Z,100446.52
2018-07-21T00:37:25.598Z,100440.21
2018-07-21T00:39:54.323Z,100436.97
2018-07-21T00:42:23.043Z,100445.15
2018-07-21T00:44:51.790Z,100435.78
2018-07-21T00:47:20.573Z,100443.11
2018-07-21T00:49:49.422Z,100442.30
2018-07-21T00:52:18.291Z,100438.72
2018-07-21T00:54:47.041Z,100437.87
2018-07-21T00:57:15.818Z,100443.32
2018-07-21T00:59:44.660Z,100440.59
2018-07-21T01:02:13.525Z,100441.63
2018-07-21T01:04:42.271Z,100438.59
2018-07-21T01:07:11.048Z,100437.23
2018-07-21T01:09:39.753Z,100438.25
2018-07-21T01:12:08.765Z,100440.13
2018-07-21T01:14:37.503Z,100437.95
2018-07-21T01:17:06.739Z,100441.70
2018-07-21T01:19:35.495Z,100439.19
2018-07-21T01:22:04.316Z,100442.22
2018-07-21T01:24:33.175Z,100445.45
2018-07-21T01:27:01.904Z,100442.42
2018-07-21T01:29:30.715Z,100438.84
2018-07-21T01:31:59.480Z,100439.70
2018-07-21T01:34:28.254Z,100439.70
2018-07-21T01:36:57.124Z,100440.55
2018-07-21T01:39:25.892Z,100434.77
2018-07-21T01:41:54.732Z,100436.13
2018-07-21T01:44:23.515Z,100439.70
2018-07-21T01:46:52.237Z,100440.55
2018-07-21T01:49:21.645Z,100441.06
2018-07-21T01:51:50.390Z,100442.42
2018-07-21T01:54:19.185Z,100445.15
2018-07-21T01:56:47.884Z,100443.45
2018-07-21T01:59:16.619Z,100440.55
2018-07-21T02:01:45.498Z,100440.72
2018-07-21T02:04:14.237Z,100442.09
2018-07-21T02:06:43.059Z,100438.00
2018-07-21T02:09:12.054Z,100445.15
2018-07-21T02:11:40.863Z,100449.23
2018-07-21T02:14:09.870Z,100444.30
2018-07-21T02:16:38.707Z,100443.27
2018-07-21T02:19:07.553Z,100450.60
2018-07-21T02:21:36.362Z,100451.96
2018-07-21T02:24:05.155Z,100450.09
2018-07-21T02:26:33.915Z,100444.81
2018-07-21T02:29:02.744Z,100453.50
2018-07-21T02:31:31.474Z,100449.75
2018-07-21T02:34:00.181Z,100456.05
2018-07-21T02:36:28.940Z,100454.86
2018-07-21T02:38:57.648Z,100460.65
2018-07-21T02:41:26.415Z,100459.80
2018-07-21T02:43:55.107Z,100467.47
2018-07-21T02:46:23.817Z,100463.89
2018-07-21T02:48:52.545Z,100465.25
2018-07-21T02:51:21.238Z,100464.40
2018-07-21T02:53:50.078Z,100468.48
2018-07-21T02:56:18.798Z,100466.27
2018-07-21T02:58:47.560Z,100467.98
2018-07-21T03:01:16.346Z,100470.36
2018-07-21T03:03:45.086Z,100467.64
2018-07-21T03:06:13.797Z,100475.81
2018-07-21T03:08:42.597Z,100471.72
2018-07-21T03:11:11.329Z,100465.97
2018-07-21T03:13:40.040Z,100462.19
2018-07-21T03:16:08.799Z,100460.83
2018-07-21T03:18:37.559Z,100460.01
2018-07-21T03:21:06.358Z,100463.76
2018-07-21T03:23:35.203Z,100469.00
2018-07-21T03:26:03.941Z,100462.91
2018-07-21T03:28:32.646Z,100464.61
2018-07-21T03:31:01.426Z,100463.76
2018-07-21T03:33:30.149Z,100458.82
2018-07-21T03:35:58.942Z,100464.61
2018-07-21T03:38:27.746Z,100459.67
2018-07-21T03:40:56.465Z,100459.67
2018-07-21T03:43:25.192Z,100456.44
2018-07-21T03:45:53.980Z,100452.01
2018-07-21T03:48:22.816Z,100455.24
2018-07-21T03:50:51.652Z,100458.31
2018-07-21T03:53:20.433Z,100449.28
2018-07-21T03:55:49.167Z,100449.28
2018-07-21T03:58:17.878Z,100438.90
2018-07-21T04:00:46.616Z,100431.27
2018-07-21T04:03:15.333Z,100426.63
2018-07-21T04:05:44.074Z,100442.98
2018-07-21T04:08:12.850Z,100444.34
2018-07-21T04:10:41.567Z,100442.17
2018-07-21T04:13:10.276Z,100447.07
2018-07-21T04:15:38.965Z,100448.13
2018-07-21T04:18:07.673Z,100452.22
2018-07-21T04:20:36.388Z,100454.60
2018-07-21T04:23:05.194Z,100452.73
2018-07-21T04:25:33.954Z,100455.97
2018-07-21T04:28:02.713Z,100459.20
2018-07-21T04:30:31.481Z,100466.87
2018-07-21T04:33:00.206Z,100461.93
2018-07-21T04:35:28.985Z,100464.86
2018-07-21T04:37:57.700Z,100464.34
2018-07-21T04:40:26.453Z,100464.34
2018-07-21T04:42:55.169Z,100454.47
2018-07-21T04:45:23.896Z,100455.84
2018-07-21T04:47:52.587Z,100454.68
2018-07-21T04:50:21.350Z,100452.27
2018-07-21T04:52:50.087Z,100451.63
2018-07-21T04:55:18.841Z,100451.63
2018-07-21T04:57:47.566Z,100458.13
2018-07-21T05:00:16.269Z,100462.73
2018-07-21T05:02:44.985Z,100469.53
2018-07-21T05:05:13.725Z,100466.47
2018-07-21T05:07:42.434Z,100462.39
2018-07-21T05:10:11.141Z,100456.09
2018-07-21T05:12:39.834Z,100462.59
2018-07-21T05:15:08.581Z,100455.78
2018-07-21T05:17:37.326Z,100457.32
2018-07-21T05:20:06.194Z,100454.59
2018-07-21T05:22:34.949Z,100460.25
2018-07-21T05:25:03.802Z,100459.73
2018-07-21T05:27:32.551Z,100453.95
2018-07-21T05:30:01.226Z,100453.95
2018-07-21T05:32:29.980Z,100456.34
2018-07-21T05:34:58.718Z,100451.23
2018-07-21T05:37:27.465Z,100462.12
2018-07-21T05:39:56.212Z,100461.61
2018-07-21T05:42:24.986Z,100455.31
2018-07-21T05:44:53.717Z,100455.83
2018-07-21T05:47:22.564Z,100455.83
2018-07-21T05:49:51.306Z,100445.78
2018-07-21T05:52:20.065Z,100444.41
2018-07-21T05:54:48.796Z,100443.05
2018-07-21T05:57:17.527Z,100451.23
2018-07-21T05:59:46.346Z,100448.30
2018-07-21T06:02:15.089Z,100446.12
2018-07-21T06:04:43.838Z,100447.99
2018-07-21T06:07:12.600Z,100446.12
2018-07-21T06:09:41.360Z,100441.18
2018-07-21T06:12:10.054Z,100451.02
2018-07-21T06:14:38.854Z,100445.58
2018-07-21T06:17:07.841Z,100440.13
2018-07-21T06:19:36.668Z,100453.75
2018-07-21T06:22:05.455Z,100454.29
2018-07-21T06:24:34.244Z,100451.88
2018-07-21T06:27:03.025Z,100453.23
2018-07-21T06:29:31.777Z,100461.41
2018-07-21T06:32:00.481Z,100454.59
2018-07-21T06:34:29.266Z,100457.32
2018-07-21T06:36:58.043Z,100454.29
2018-07-21T06:39:26.806Z,100461.41
2018-07-21T06:41:55.581Z,100465.49
2018-07-21T06:44:24.335Z,100466.14
2018-07-21T06:46:53.099Z,100471.80
2018-07-21T06:49:21.856Z,100475.88
2018-07-21T06:51:50.574Z,100473.80
2018-07-21T06:54:19.409Z,100467.33
2018-07-21T06:56:48.145Z,100470.90
2018-07-21T06:59:16.920Z,100466.81
2018-07-21T07:01:45.680Z,100458.64
2018-07-21T07:04:14.440Z,100465.75
2018-07-21T07:06:43.238Z,100464.73
2018-07-21T07:09:12.369Z,100469.16
2018-07-21T07:11:41.130Z,100464.52
2018-07-21T07:14:09.898Z,100469.45
2018-07-21T07:16:38.637Z,100469.80
2018-07-21T07:19:07.337Z,100470.11
2018-07-21T07:21:36.098Z,100468.74
2018-07-21T07:24:04.975Z,100470.44
2018-07-21T07:26:33.784Z,100471.29
2018-07-21T07:29:02.540Z,100468.05
2018-07-21T07:31:31.299Z,100472.14
2018-07-21T07:34:00.121Z,100470.06
2018-07-21T07:36:28.837Z,100464.27
2018-07-21T07:38:57.547Z,100467.00
2018-07-21T07:41:27.178Z,100464.61
2018-07-21T07:43:55.948Z,100456.95
2018-07-21T07:46:24.714Z,100460.31
2018-07-21T07:48:53.461Z,100463.89
2018-07-21T07:51:22.244Z,100463.38
2018-07-21T07:53:51.003Z,100463.16
2018-07-21T07:56:19.774Z,100462.48
2018-07-21T07:58:48.537Z,100463.63
2018-07-21T08:01:17.340Z,100465.64
2018-07-21T08:03:46.073Z,100467.64
2018-07-21T08:06:14.980Z,100471.55
2018-07-21T08:08:43.716Z,100463.53
2018-07-21T08:11:12.427Z,100466.39
2018-07-21T08:13:41.270Z,100465.37
2018-07-21T08:16:10.013Z,100466.31
2018-07-21T08:18:38.763Z,100467.67
2018-07-21T08:21:07.600Z,100468.34
2018-07-21T08:23:36.358Z,100463.71
2018-07-21T08:26:05.214Z,100460.47
2018-07-21T08:28:34.025Z,100464.90
2018-07-21T08:31:02.919Z,100465.75
2018-07-21T08:33:31.653Z,100471.20
2018-07-21T08:36:00.378Z,100464.90
2018-07-21T08:38:29.305Z,100463.53
2018-07-21T08:40:58.072Z,100466.56
2018-07-21T08:43:26.841Z,100457.75
2018-07-21T08:45:55.603Z,100457.23
2018-07-21T08:48:24.330Z,100453.14
2018-07-21T08:50:53.076Z,100455.87
2018-07-21T08:53:21.846Z,100447.69
2018-07-21T08:55:50.769Z,100438.66
2018-07-21T08:58:19.509Z,100448.54
2018-07-21T09:00:48.237Z,100444.97
2018-07-21T09:03:16.988Z,100444.97
2018-07-21T09:05:45.772Z,100445.99
2018-07-21T09:08:14.675Z,100449.56
2018-07-21T09:10:43.457Z,100445.48
2018-07-21T09:13:12.419Z,100448.20
2018-07-21T09:15:41.197Z,100451.78
2018-07-21T09:18:09.921Z,100449.56
2018-07-21T09:20:38.741Z,100452.30
2018-07-21T09:23:09.372Z,100454.17
2018-07-21T09:25:38.150Z,100455.53
2018-07-21T09:28:06.981Z,100447.90
2018-07-21T09:30:35.741Z,100446.84
2018-07-21T09:33:04.526Z,100448.54
2018-07-21T09:35:33.314Z,100447.90
2018-07-21T09:38:02.134Z,100446.53
2018-07-21T09:40:30.914Z,100440.23
2018-07-21T09:42:59.668Z,100447.56
2018-07-21T09:45:28.468Z,100449.44
2018-07-21T09:47:57.219Z,100445.35
2018-07-21T09:50:25.996Z,100448.92
2018-07-21T09:52:54.758Z,100450.50
2018-07-21T09:55:23.560Z,100447.77
2018-07-21T09:57:52.570Z,100451.53
2018-07-21T10:00:26.440Z,100453.74
2018-07-21T10:02:55.202Z,100447.10
2018-07-21T10:05:23.969Z,100453.92
2018-07-21T10:07:52.741Z,100457.19
2018-07-21T10:10:21.458Z,100454.97
2018-07-21T10:12:50.231Z,100455.48
2018-07-21T10:15:18.964Z,100454.46
2018-07-21T10:17:47.731Z,100463.66
2018-07-21T10:20:16.673Z,100462.64
2018-07-21T10:22:45.492Z,100457.36
2018-07-21T10:25:22.205Z,100451.40
2018-07-21T10:27:53.384Z,100447.31
2018-07-21T10:30:22.168Z,100448.16
2018-07-21T10:32:50.846Z,100445.44
2018-07-21T10:35:19.557Z,100445.95
2018-07-21T10:37:48.363Z,100447.10
2018-07-21T10:40:17.134Z,100447.10
2018-07-21T10:42:45.878Z,100440.50
2018-07-21T10:45:14.682Z,100438.92
2018-07-21T10:47:43.471Z,100437.56
2018-07-21T10:50:12.261Z,100439.77
2018-07-21T10:52:40.994Z,100433.47
2018-07-21T10:55:09.775Z,100431.30
2018-07-21T10:57:38.575Z,100429.38
2018-07-21T11:00:07.808Z,100430.75
2018-07-21T11:02:36.684Z,100428.56
2018-07-21T11:05:05.651Z,100431.80
2018-07-21T11:07:34.391Z,100424.48
2018-07-21T11:10:03.183Z,100424.14
2018-07-21T11:12:31.989Z,100418.69
2018-07-21T11:15:00.793Z,100419.54
2018-07-21T11:17:29.518Z,100422.27
2018-07-21T11:19:58.281Z,100424.14
2018-07-21T11:22:27.071Z,100418.69
2018-07-21T11:24:55.876Z,100424.48
2018-07-21T11:27:24.689Z,100429.59
2018-07-21T11:29:53.552Z,100418.69
2018-07-21T11:32:22.378Z,100420.05
2018-07-21T11:34:51.162Z,100416.81
2018-07-21T11:37:20.027Z,100416.81
2018-07-21T11:39:48.912Z,100414.09
2018-07-21T11:42:17.655Z,100415.45
2018-07-21T11:44:46.386Z,100409.15
2018-07-21T11:47:15.181Z,100413.58
2018-07-21T11:49:43.983Z,100407.06
2018-07-21T11:52:12.722Z,100400.97
2018-07-21T11:54:41.444Z,100390.92
2018-07-21T11:57:10.201Z,100392.28
2018-07-21T11:59:38.966Z,100387.67
2018-07-21T12:02:07.828Z,100392.58
2018-07-21T12:04:36.804Z,100394.80
2018-07-21T12:07:05.862Z,100399.95
2018-07-21T12:09:34.689Z,100397.52
2018-07-21T12:12:03.539Z,100391.77
2018-07-21T12:14:32.340Z,100385.98
2018-07-21T12:17:01.081Z,100384.95
2018-07-21T12:19:29.900Z,100383.59
2018-07-21T12:21:58.661Z,100383.59
2018-07-21T12:24:27.427Z,100384.10
2018-07-21T12:26:56.208Z,100379.17
2018-07-21T12:29:25.094Z,100378.14
2018-07-21T12:31:53.907Z,100382.23
2018-07-21T12:34:22.736Z,100379.17
2018-07-21T12:36:51.525Z,100382.23
2018-07-21T12:39:20.321Z,100376.78
2018-07-21T12:41:49.088Z,100387.13
2018-07-21T12:44:17.877Z,100380.86
2018-07-21T12:46:46.691Z,100387.67
2018-07-21T12:49:15.434Z,100396.67
2018-07-21T12:51:44.236Z,100406.22
2018-07-21T12:54:13.037Z,100396.67
2018-07-21T12:56:41.754Z,100396.67
2018-07-21T12:59:10.571Z,100390.41
2018-07-21T13:01:39.323Z,100396.16
2018-07-21T13:04:08.124Z,100395.31
2018-07-21T13:06:36.832Z,100403.19
2018-07-21T13:09:08.000Z,100394.50
2018-07-21T13:11:36.774Z,100380.31
2018-07-21T13:14:05.568Z,100385.47
2018-07-21T13:16:34.545Z,100383.59
2018-07-21T13:19:03.347Z,100376.78
2018-07-21T13:21:32.261Z,100375.41
2018-07-21T13:24:01.073Z,100369.63
2018-07-21T13:26:29.844Z,100366.56
2018-07-21T13:28:58.619Z,100368.27
2018-07-21T13:31:27.457Z,100366.90
2018-07-21T13:33:56.270Z,100367.62
2018-07-21T13:36:25.169Z,100371.71
2018-07-21T13:38:53.933Z,100370.35
2018-07-21T13:41:22.669Z,100369.50
2018-07-21T13:43:51.454Z,100371.38
2018-07-21T13:46:20.203Z,100372.41
2018-07-21T13:48:49.019Z,100365.59
2018-07-21T13:51:17.943Z,100365.25
2018-07-21T13:53:46.770Z,100358.44
2018-07-21T13:56:15.567Z,100348.91
2018-07-21T13:58:44.325Z,100346.17
2018-07-21T14:01:13.134Z,100339.03
2018-07-21T14:03:41.929Z,100330.85
2018-07-21T14:06:10.754Z,100332.73
2018-07-21T14:08:39.529Z,100332.42
2018-07-21T14:11:08.360Z,100333.27
2018-07-21T14:13:37.160Z,100334.30
2018-07-21T14:16:05.999Z,100347.41
2018-07-21T14:18:34.841Z,100332.61
2018-07-21T14:21:03.645Z,100334.52
2018-07-21T14:23:32.378Z,100339.42
2018-07-21T14:26:01.137Z,100326.85
2018-07-21T14:28:29.926Z,100329.06
2018-07-21T14:30:58.687Z,100334.18
2018-07-21T14:33:27.446Z,100326.85
2018-07-21T14:35:56.336Z,100319.19
2018-07-21T14:38:25.169Z,100323.79
2018-07-21T14:40:53.955Z,100321.92
2018-07-21T14:43:22.726Z,100318.34
2018-07-21T14:45:51.573Z,100312.89
2018-07-21T14:48:20.382Z,100311.53
2018-07-21T14:50:49.176Z,100317.31
2018-07-21T14:53:17.948Z,100310.50
2018-07-21T14:55:46.796Z,100306.41
2018-07-21T14:58:15.783Z,100305.90
2018-07-21T15:00:44.545Z,100302.63
2018-07-21T15:03:13.369Z,100300.96
2018-07-21T15:05:42.163Z,100300.45
2018-07-21T15:08:10.965Z,100298.02
2018-07-21T15:10:39.831Z,100301.27
2018-07-21T15:13:08.607Z,100300.75
2018-07-21T15:15:37.406Z,100295.81
2018-07-21T15:18:06.295Z,100302.11
2018-07-21T15:20:35.139Z,100299.91
2018-07-21T15:23:03.966Z,100300.23
2018-07-21T15:25:32.750Z,100295.81
2018-07-21T15:28:01.590Z,100296.66
2018-07-21T15:30:30.358Z,100294.78
2018-07-21T15:32:59.121Z,100288.48
2018-07-21T15:35:27.908Z,100285.25
2018-07-21T15:37:56.765Z,100279.80
2018-07-21T15:40:25.669Z,100281.16
2018-07-21T15:42:54.466Z,100282.86
2018-07-21T15:45:23.248Z,100277.92
2018-07-21T15:47:52.097Z,100271.63
2018-07-21T15:50:20.887Z,100271.95
2018-07-21T15:52:49.654Z,100276.34
2018-07-21T15:55:18.436Z,100279.28
2018-07-21T15:57:50.906Z,100272.77
2018-07-21T16:00:19.782Z,100270.89
2018-07-21T16:02:48.582Z,100257.99
2018-07-21T16:05:17.334Z,100260.50
2018-07-21T16:07:46.073Z,100266.80
2018-07-21T16:10:14.860Z,100261.35
2018-07-21T16:12:43.622Z,100265.44
2018-07-21T16:15:12.422Z,100261.35
2018-07-21T16:17:41.286Z,100256.42
2018-07-21T16:20:10.175Z,100259.69
2018-07-21T16:22:38.962Z,100255.91
2018-07-21T16:25:07.805Z,100254.02
2018-07-21T16:27:36.750Z,100254.02
2018-07-21T16:30:05.574Z,100249.09
2018-07-21T16:32:34.389Z,100243.64
2018-07-21T16:35:03.149Z,100248.23
2018-07-21T16:37:31.922Z,100246.19
2018-07-21T16:40:00.950Z,100252.15
2018-07-21T16:42:35.436Z,100251.63
2018-07-21T16:46:06.688Z,100247.21
2018-07-21T16:48:35.469Z,100237.67
2018-07-21T16:51:04.333Z,100241.97
2018-07-21T16:53:33.315Z,100246.06
2018-07-21T16:56:02.133Z,100246.06
2018-07-21T16:58:30.971Z,100250.66
2018-07-21T17:00:59.763Z,100246.87
2018-07-21T17:03:28.566Z,100242.48
2018-07-21T17:05:57.321Z,100236.19
2018-07-21T17:08:26.147Z,100240.61
2018-07-21T17:10:54.992Z,100246.58
2018-07-21T17:13:23.793Z,100243.85
2018-07-21T17:15:52.637Z,100243.52
2018-07-21T17:18:21.401Z,100246.58
2018-07-21T17:20:50.187Z,100242.48
2018-07-21T17:23:19.041Z,100239.77
2018-07-21T17:25:47.963Z,100230.73
2018-07-21T17:28:16.851Z,100226.65
2018-07-21T17:30:45.612Z,100232.95
2018-07-21T17:33:14.408Z,100222.56
2018-07-21T17:35:43.351Z,100229.38
2018-07-21T17:38:12.168Z,100231.25
2018-07-21T17:40:41.083Z,100235.34
2018-07-21T17:43:09.868Z,100241.00
2018-07-21T17:45:38.967Z,100248.13
2018-07-21T17:48:07.792Z,100246.45
2018-07-21T17:50:36.697Z,100245.39
2018-07-21T17:53:05.618Z,100236.92
2018-07-21T17:55:34.451Z,100233.34
2018-07-21T17:58:03.966Z,100236.58
2018-07-21T18:00:32.798Z,100244.76
2018-07-21T18:03:01.585Z,100243.91
2018-07-21T18:05:30.496Z,100240.88
2018-07-21T18:07:59.313Z,100245.82
2018-07-21T18:10:28.147Z,100243.61
2018-07-21T18:12:56.934Z,100234.59
2018-07-21T18:15:25.751Z,100235.62
2018-07-21T18:17:54.606Z,100238.34
2018-07-21T18:20:23.344Z,100236.34
2018-07-21T18:22:52.151Z,100245.88
2018-07-21T18:25:21.096Z,100245.88
2018-07-21T18:27:49.856Z,100255.08
2018-07-21T18:30:18.637Z,100285.06
2018-07-21T18:32:47.447Z,100288.84
2018-07-21T18:35:16.598Z,100309.28
2018-07-21T18:37:45.441Z,100321.55
2018-07-21T18:40:14.303Z,100338.92
2018-07-21T18:42:43.109Z,100324.99
2018-07-21T18:45:11.876Z,100323.30
2018-07-21T18:47:40.664Z,100334.20
2018-07-21T18:50:09.504Z,100332.83
2018-07-21T18:52:38.329Z,100326.23
2018-07-21T18:55:07.167Z,100329.98
2018-07-21T18:57:37.480Z,100330.50
2018-07-21T19:00:06.320Z,100323.69
2018-07-21T19:02:35.299Z,100317.94
2018-07-21T19:05:04.294Z,100313.00
2018-07-21T19:07:33.094Z,100320.96
2018-07-21T19:10:01.923Z,100317.59
2018-07-21T19:12:35.927Z,100317.59
2018-07-21T19:15:04.967Z,100314.54
2018-07-21T19:17:33.834Z,100319.30
2018-07-21T19:20:07.765Z,100322.71
2018-07-21T19:22:36.599Z,100321.34
2018-07-21T19:25:10.562Z,100321.69
2018-07-21T19:27:39.351Z,100322.20
2018-07-21T19:30:08.163Z,100321.69
2018-07-21T19:32:42.077Z,100324.08
2018-07-21T19:35:10.944Z,100324.62
2018-07-21T19:37:44.765Z,100330.89
2018-07-21T19:40:13.546Z,100327.34
2018-07-21T19:42:42.349Z,100329.22
2018-07-21T19:45:11.188Z,100330.58
2018-07-21T19:47:40.148Z,100330.58
2018-07-21T19:50:08.922Z,100328.70
2018-07-21T19:52:37.824Z,100332.80
2018-07-21T19:55:06.839Z,100335.18
2018-07-21T19:57:35.638Z,100335.70
2018-07-21T20:00:05.042Z,100331.09
2018-07-21T20:02:34.441Z,100332.97
2018-07-21T20:05:03.267Z,100336.55
2018-07-21T20:07:32.046Z,100344.20
2018-07-21T20:10:00.857Z,100342.50
2018-07-21T20:12:29.658Z,100347.95
2018-07-21T20:14:58.429Z,100337.06
2018-07-21T20:17:27.259Z,100342.17
2018-07-21T20:19:56.115Z,100348.16
2018-07-21T20:22:24.942Z,100338.81
2018-07-21T20:24:53.734Z,100339.99
2018-07-21T20:27:22.488Z,100347.31
2018-07-21T20:29:51.291Z,100345.62
2018-07-21T20:32:20.035Z,100352.43
2018-07-21T20:34:48.770Z,100351.06
2018-07-21T20:37:17.753Z,100349.70
2018-07-21T20:39:46.530Z,100351.06
2018-07-21T20:42:15.357Z,100356.52
2018-07-21T20:44:44.127Z,100362.30
2018-07-21T20:47:12.920Z,100358.39
2018-07-21T20:49:41.699Z,100359.45
2018-07-21T20:52:10.500Z,100368.98
2018-07-21T20:54:39.328Z,100375.28
2018-07-21T20:57:08.347Z,100379.03
2018-07-21T20:59:37.180Z,100374.44
2018-07-21T21:02:06.008Z,100380.39
2018-07-21T21:04:34.772Z,100383.63
2018-07-21T21:07:03.638Z,100392.14
2018-07-21T21:09:32.515Z,100387.20
2018-07-21T21:12:01.435Z,100386.87
2018-07-21T21:14:30.209Z,100390.95
2018-07-21T21:16:59.023Z,100397.77
2018-07-21T21:19:27.871Z,100391.16
2018-07-21T21:21:56.652Z,100393.37
2018-07-21T21:24:25.443Z,100394.73
2018-07-21T21:26:54.296Z,100396.61
2018-07-21T21:29:23.090Z,100398.83
2018-07-21T21:31:51.858Z,100400.36
2018-07-21T21:34:20.602Z,100404.45
2018-07-21T21:36:49.408Z,100402.58
2018-07-21T21:39:18.178Z,100403.09
2018-07-21T21:41:47.606Z,100409.59
2018-07-21T21:44:16.436Z,100411.47
2018-07-21T21:46:45.210Z,100407.89
2018-07-21T21:49:13.965Z,100409.25
2018-07-21T21:51:43.942Z,100415.55
2018-07-21T21:54:12.708Z,100409.46
2018-07-21T21:56:41.461Z,100412.36
2018-07-21T21:59:10.911Z,100413.20
2018-07-21T22:01:39.725Z,100414.57
2018-07-21T22:04:08.498Z,100413.42
2018-07-21T22:06:37.314Z,100418.35
2018-07-21T22:09:09.006Z,100410.69
2018-07-21T22:11:37.902Z,100413.93
2018-07-21T22:14:07.237Z,100412.23
2018-07-21T22:16:36.079Z,100411.38
2018-07-21T22:19:04.872Z,100404.78
2018-07-21T22:21:33.697Z,100411.92
2018-07-21T22:24:02.519Z,100411.25
2018-07-21T22:26:31.273Z,100410.23
2018-07-21T22:29:00.049Z,100409.89
2018-07-21T22:31:28.855Z,100410.43
2018-07-21T22:33:57.638Z,100410.94
2018-07-21T22:36:26.443Z,100410.61
2018-07-21T22:38:55.188Z,100414.39
2018-07-21T22:41:24.903Z,100407.23
2018-07-21T22:43:53.790Z,100413.53
2018-07-21T22:46:22.591Z,100412.69
2018-07-21T22:48:51.397Z,100413.20
2018-07-21T22:51:20.200Z,100410.98
2018-07-21T22:53:49.028Z,100412.34
2018-07-21T22:56:17.798Z,100417.80
2018-07-21T22:58:46.628Z,100418.34
2018-07-21T23:01:15.471Z,100415.61
2018-07-21T23:03:45.137Z,100413.41
2018-07-21T23:06:13.993Z,100421.58
2018-07-21T23:08:42.769Z,100423.78
2018-07-21T23:11:11.544Z,100430.26
2018-07-21T23:13:40.301Z,100426.69
2018-07-21T23:16:09.268Z,100426.69
2018-07-21T23:18:38.046Z,100423.96
2018-07-21T23:21:06.869Z,100427.53
2018-07-21T23:23:35.676Z,100429.10
2018-07-21T23:26:04.623Z,100428.05
2018-07-21T23:28:33.389Z,100428.25
2018-07-21T23:31:02.255Z,100430.46
2018-07-21T23:33:31.003Z,100422.30
2018-07-21T23:35:59.781Z,100425.02
2018-07-21T23:38:28.522Z,100433.19
2018-07-21T23:40:57.259Z,100433.70
2018-07-21T23:43:26.050Z,100430.13
2018-07-21T23:45:54.827Z,100432.00
2018-07-21T23:48:23.600Z,100434.21
2018-07-21T23:50:52.405Z,100436.94
2018-07-21T23:53:21.211Z,100437.92
2018-07-21T23:55:49.963Z,100436.56
2018-07-21T23:58:18.674Z,100437.45
